Time;durP1;ratioP1;P1;durP2;ratioP2;P2;SDS_P1;SDS_P2;PMS_P1;PMS_P2;Temp;Humidity;BMP_temperature;BMP_pressure;BME280_temperature;BME280_humidity;BME280_pressure;Samples;Min_cycle;Max_cycle;Signal;HPM_P1;HPM_P2
2020/12/09 00:00:08;;;;;;;;;;;;;;;-6.17;80.52;101894.06;1820181;78;21176;-51
2020/12/09 00:02:39;;;;;;;0.20;0.20;;;;;;;-6.12;80.46;101888.34;1788956;80;20276;-50
2020/12/09 00:05:09;;;;;;;0.10;0.10;;;;;;;-6.08;80.51;101893.27;1789740;80;21453;-51
2020/12/09 00:07:37;;;;;;;0.10;0.10;;;;;;;-6.06;80.36;101887.32;1789582;80;21580;-48
2020/12/09 00:10:05;;;;;;;0.62;0.62;;;;;;;-5.97;79.84;101900.78;1807609;78;21114;-48
2020/12/09 00:12:33;;;;;;;0.00;0.00;;;;;;;-5.86;79.77;101898.83;1794755;78;21181;-48
2020/12/09 00:15:07;;;;;;;0.10;0.10;;;;;;;-5.86;79.77;101898.83;1788826;80;21122;-47
2020/12/09 00:17:35;;;;;;;0.30;0.30;;;;;;;-5.84;79.58;101896.01;1789015;80;21122;-47
2020/12/09 00:20:04;;;;;;;0.28;0.28;;;;;;;-5.80;79.49;101890.77;1791099;78;21169;-47
2020/12/09 00:22:32;;;;;;;0.10;0.10;;;;;;;-5.76;79.33;101896.19;1789130;80;21181;-47
2020/12/09 00:25:01;;;;;;;0.10;0.10;;;;;;;-5.76;79.33;101896.19;1763175;80;21125;-48
2020/12/09 00:27:29;;;;;;;0.00;0.00;;;;;;;-5.76;79.34;101900.19;1789140;80;21549;-47
2020/12/09 00:29:57;;;;;;;2.35;0.40;;;;;;;-5.75;79.16;101903.19;1798381;78;21418;-49
2020/12/09 00:32:24;;;;;;;0.10;0.10;;;;;;;-5.73;78.96;101892.41;1751838;81;21471;-49
2020/12/09 00:34:52;;;;;;;0.00;0.00;;;;;;;-5.72;78.99;101887.42;1751681;81;21692;-47
2020/12/09 00:37:20;;;;;;;0.10;0.10;;;;;;;-5.71;78.91;101891.30;1732848;82;21114;-47
2020/12/09 00:39:48;;;;;;;0.10;0.10;;;;;;;-5.70;78.93;101892.96;1813436;78;21150;-48
2020/12/09 00:42:15;;;;;;;0.10;0.10;;;;;;;-5.68;78.51;101895.00;1818691;78;21117;-47
2020/12/09 00:44:44;;;;;;;0.05;0.05;;;;;;;-5.68;78.51;101895.00;1816123;78;21165;-47
2020/12/09 00:47:12;;;;;;;2.08;1.85;;;;;;;-5.63;78.31;101901.25;1796088;78;21573;-47
2020/12/09 00:49:58;;;;;;;0.30;0.30;;;;;;;-5.63;78.31;101901.25;1818615;78;21138;-48
2020/12/09 00:52:30;;;;;;;0.10;0.10;;;;;;;-5.63;78.44;101892.77;1818645;78;21094;-47
2020/12/09 00:54:58;;;;;;;0.88;0.45;;;;;;;-5.63;78.40;101890.10;1798376;78;21469;-47
2020/12/09 00:57:26;;;;;;;0.13;0.13;;;;;;;-5.62;78.30;101903.76;1786407;80;21118;-48
2020/12/09 00:59:54;;;;;;;0.10;0.10;;;;;;;-5.62;77.94;101900.27;1752070;81;21609;-48
2020/12/09 01:02:23;;;;;;;0.10;0.10;;;;;;;-5.60;78.03;101890.81;1732393;81;21461;-47
2020/12/09 01:04:52;;;;;;;0.62;0.62;;;;;;;-5.60;77.92;101889.48;1724860;81;21236;-48
2020/12/09 01:07:20;;;;;;;0.15;0.15;;;;;;;-5.60;77.78;101892.14;1740160;81;21117;-48
2020/12/09 01:09:47;;;;;;;0.10;0.10;;;;;;;-5.59;78.10;101890.66;1732491;82;21161;-49
2020/12/09 01:12:15;;;;;;;0.68;0.68;;;;;;;-5.59;77.98;101888.48;1734620;81;21138;-48
2020/12/09 01:14:43;;;;;;;0.10;0.10;;;;;;;-5.59;77.98;101888.48;1732488;82;21166;-49
2020/12/09 01:17:10;;;;;;;0.10;0.10;;;;;;;-5.62;77.93;101890.44;1732513;82;21117;-50
2020/12/09 01:19:38;;;;;;;0.10;0.10;;;;;;;-5.60;77.67;101888.15;1742160;81;21177;-49
2020/12/09 01:22:06;;;;;;;0.10;0.10;;;;;;;-5.60;77.59;101889.48;1749634;80;21137;-49
2020/12/09 01:24:34;;;;;;;0.10;0.10;;;;;;;-5.62;77.82;101887.78;1732557;82;21141;-47
2020/12/09 01:27:02;;;;;;;0.30;0.30;;;;;;;-5.64;77.92;101887.10;1732428;82;21157;-48
2020/12/09 01:29:30;;;;;;;0.10;0.10;;;;;;;-5.63;78.14;101887.44;1734348;81;21534;-47
2020/12/09 01:32:01;;;;;;;0.10;0.10;;;;;;;-5.62;78.24;101888.28;1732226;82;21101;-47
2020/12/09 01:34:29;;;;;;;0.15;0.15;;;;;;;-5.62;78.06;101881.62;1732343;82;21552;-48
2020/12/09 01:36:58;;;;;;;0.85;0.85;;;;;;;-5.63;78.20;101878.12;1749554;81;21146;-47
2020/12/09 01:39:26;;;;;;;0.10;0.10;;;;;;;-5.62;78.25;101880.28;1751020;81;21138;-48
2020/12/09 01:41:54;;;;;;;0.10;0.10;;;;;;;-5.62;78.49;101875.80;1732205;82;21133;-48
2020/12/09 01:44:23;;;;;;;0.10;0.10;;;;;;;-5.63;78.62;101872.79;1732355;82;21127;-47
2020/12/09 01:46:52;;;;;;;0.28;0.28;;;;;;;-5.62;78.81;101871.80;1735929;81;21123;-47
2020/12/09 01:49:20;;;;;;;0.00;0.00;;;;;;;-5.63;78.82;101878.12;1763044;81;21541;-49
2020/12/09 01:51:47;;;;;;;0.10;0.10;;;;;;;-5.62;79.09;101871.80;1762920;81;21134;-48
2020/12/09 01:54:15;;;;;;;0.10;0.10;;;;;;;-5.61;78.94;101877.99;1741400;81;21142;-48
2020/12/09 01:56:43;;;;;;;0.10;0.10;;;;;;;-5.61;78.95;101880.66;1732576;81;21130;-47
2020/12/09 01:59:10;;;;;;;0.00;0.00;;;;;;;-5.61;79.00;101880.66;1725555;82;21101;-47
2020/12/09 02:01:38;;;;;;;0.23;0.23;;;;;;;-5.60;78.99;101889.48;1732474;81;21387;-48
2020/12/09 02:04:05;;;;;;;0.10;0.10;;;;;;;-5.60;78.99;101889.48;1732572;82;21130;-47
2020/12/09 02:06:33;;;;;;;0.88;0.82;;;;;;;-5.62;79.19;101883.78;1745809;81;21639;-48
2020/12/09 02:09:01;;;;;;;0.30;0.30;;;;;;;-5.60;79.29;101892.14;1762937;80;21115;-47
2020/12/09 02:11:28;;;;;;;0.10;0.10;;;;;;;-5.60;79.38;101893.48;1738611;81;21106;-48
2020/12/09 02:13:56;;;;;;;0.10;0.10;;;;;;;-5.58;80.01;101892.36;1732463;82;21133;-49
2020/12/09 02:16:24;;;;;;;0.10;0.10;;;;;;;-5.58;80.01;101892.36;1740957;81;21142;-47
2020/12/09 02:18:52;;;;;;;0.10;0.10;;;;;;;-5.56;79.79;101893.53;1762854;81;21114;-48
2020/12/09 02:21:22;;;;;;;0.10;0.10;;;;;;;-5.56;79.98;101898.86;1762885;81;21455;-48
2020/12/09 02:23:50;;;;;;;0.10;0.10;;;;;;;-5.55;80.12;101887.24;1762966;81;21130;-48
2020/12/09 02:26:18;;;;;;;0.20;0.20;;;;;;;-5.54;80.38;101887.58;1739657;81;21134;-48
2020/12/09 02:28:45;;;;;;;0.20;0.20;;;;;;;-5.55;80.18;101885.91;1759817;81;21183;-49
2020/12/09 02:31:13;;;;;;;0.10;0.10;;;;;;;-5.52;80.36;101882.96;1762524;81;21118;-49
2020/12/09 02:33:41;;;;;;;0.10;0.10;;;;;;;-5.54;80.52;101877.77;1762467;81;21154;-50
2020/12/09 02:36:08;;;;;;;0.10;0.10;;;;;;;-5.53;80.70;101873.30;1743010;81;21146;-48
2020/12/09 02:38:36;;;;;;;0.10;0.10;;;;;;;-5.53;80.70;101873.30;1732215;82;21182;-50
2020/12/09 02:41:04;;;;;;;0.10;0.10;;;;;;;-5.50;81.01;101877.84;1701676;82;21137;-48
2020/12/09 02:43:32;;;;;;;0.05;0.05;;;;;;;-5.51;81.16;101877.51;1735681;81;21115;-47
2020/12/09 02:46:00;;;;;;;0.10;0.10;;;;;;;-5.51;81.38;101867.34;1762671;81;21110;-47
2020/12/09 02:48:27;;;;;;;0.05;0.05;;;;;;;-5.51;81.38;101867.34;1762836;81;21544;-48
2020/12/09 02:50:56;;;;;;;0.05;0.05;;;;;;;-5.47;81.52;101875.39;1762808;81;21636;-48
2020/12/09 02:53:24;;;;;;;0.10;0.10;;;;;;;-5.47;82.08;101874.06;1762791;81;21578;-50
2020/12/09 02:55:51;;;;;;;0.10;0.10;;;;;;;-5.47;82.08;101874.06;1761659;81;21601;-48
2020/12/09 02:58:19;;;;;;;0.10;0.10;;;;;;;-5.44;81.99;101881.77;1762943;81;21106;-50
2020/12/09 03:00:47;;;;;;;0.10;0.10;;;;;;;-5.43;82.12;101887.46;1761958;81;21391;-48
2020/12/09 03:03:15;;;;;;;0.55;0.55;;;;;;;-5.42;82.15;101883.80;1750394;80;21149;-49
2020/12/09 03:05:43;;;;;;;0.37;0.37;;;;;;;-5.42;82.29;101883.80;1732469;82;21150;-50
2020/12/09 03:08:10;;;;;;;0.30;0.30;;;;;;;-5.40;82.80;101874.69;1732622;82;21153;-50
2020/12/09 03:10:38;;;;;;;0.42;0.42;;;;;;;-5.40;82.80;101874.69;1732517;82;21139;-48
2020/12/09 03:13:05;;;;;;;0.10;0.10;;;;;;;-5.38;82.66;101881.22;1740685;81;21107;-47
2020/12/09 03:15:33;;;;;;;0.00;0.00;;;;;;;-5.37;82.61;101876.23;1762887;81;21178;-48
2020/12/09 03:18:00;;;;;;;0.10;0.10;;;;;;;-5.35;82.78;101880.94;1756799;80;21233;-48
2020/12/09 03:20:28;;;;;;;0.20;0.20;;;;;;;-5.34;83.06;101889.30;1732432;82;21734;-49
2020/12/09 03:22:56;;;;;;;0.40;0.40;;;;;;;-5.34;83.06;101889.30;1745702;81;21114;-47
2020/12/09 03:25:24;;;;;;;0.08;0.08;;;;;;;-5.34;82.92;101886.64;1732635;82;21134;-48
2020/12/09 03:27:51;;;;;;;0.15;0.15;;;;;;;-5.32;83.23;101891.80;1732461;82;21173;-48
2020/12/09 03:30:19;;;;;;;0.03;0.03;;;;;;;-5.31;83.66;101899.67;1732434;82;21476;-48
2020/12/09 03:32:47;;;;;;;0.05;0.05;;;;;;;-5.31;83.66;101899.67;1737786;81;22356;-48
2020/12/09 03:35:16;;;;;;;0.30;0.30;;;;;;;-5.26;83.81;101892.09;1741372;81;21091;-49
2020/12/09 03:37:44;;;;;;;0.17;0.17;;;;;;;-5.26;83.98;101881.44;1762930;81;21133;-48
2020/12/09 03:40:11;;;;;;;0.15;0.15;;;;;;;-5.22;84.08;101882.84;1762159;81;21193;-48
2020/12/09 03:42:39;;;;;;;0.30;0.30;;;;;;;-5.20;84.14;101876.02;1732301;82;21564;-49
2020/12/09 03:45:06;;;;;;;0.10;0.10;;;;;;;-5.19;84.21;101874.56;1732564;82;21147;-47
2020/12/09 03:47:34;;;;;;;0.45;0.45;;;;;;;-5.16;84.33;101879.27;1732507;82;21663;-49
2020/12/09 03:50:04;;;;;;;0.53;0.53;;;;;;;-5.14;84.34;101887.94;1732614;82;21118;-49
2020/12/09 03:52:31;;;;;;;0.30;0.30;;;;;;;-5.13;84.60;101889.63;1747602;81;21588;-50
2020/12/09 03:54:59;;;;;;;0.13;0.13;;;;;;;-5.12;84.83;101890.81;1752154;81;21173;-49
2020/12/09 03:57:27;;;;;;;0.53;0.40;;;;;;;-5.09;85.01;101885.72;1732702;82;21462;-48
2020/12/09 03:59:54;;;;;;;0.10;0.10;;;;;;;-5.07;85.21;101896.59;1732699;82;21129;-49
2020/12/09 04:02:22;;;;;;;0.10;0.10;;;;;;;-5.02;85.39;101894.80;1732088;81;21445;-49
2020/12/09 04:04:50;;;;;;;0.15;0.15;;;;;;;-5.00;85.54;101886.17;1727305;83;21229;-48
2020/12/09 04:07:17;;;;;;;0.00;0.00;;;;;;;-4.94;85.72;101885.62;1727261;82;21150;-49
2020/12/09 04:09:45;;;;;;;0.10;0.10;;;;;;;-4.91;85.83;101886.66;1734925;81;21123;-48
2020/12/09 04:12:13;;;;;;;0.10;0.10;;;;;;;-4.90;85.90;101885.66;1757160;81;21429;-50
2020/12/09 04:14:40;;;;;;;0.10;0.10;;;;;;;-4.86;85.98;101888.41;1757299;81;21134;-48
2020/12/09 04:17:08;;;;;;;0.05;0.05;;;;;;;-4.85;86.08;101884.73;1757308;81;21130;-50
2020/12/09 04:19:35;;;;;;;0.20;0.20;;;;;;;-4.82;86.05;101885.81;1736837;81;21134;-49
2020/12/09 04:22:03;;;;;;;0.00;0.00;;;;;;;-4.80;86.10;101874.98;1727177;81;21157;-48
2020/12/09 04:24:32;;;;;;;0.00;0.00;;;;;;;-4.77;86.17;101880.05;1726945;82;21172;-48
2020/12/09 04:27:00;;;;;;;0.10;0.10;;;;;;;-4.76;86.14;101875.89;1733055;81;21130;-48
2020/12/09 04:29:28;;;;;;;0.17;0.17;;;;;;;-4.74;86.16;101873.59;1727115;83;21142;-49
2020/12/09 04:31:55;;;;;;;0.10;0.10;;;;;;;-4.72;86.14;101884.92;1727204;82;21174;-49
2020/12/09 04:34:23;;;;;;;0.10;0.10;;;;;;;-4.70;86.17;101882.96;1727218;82;21138;-49
2020/12/09 04:36:51;;;;;;;3.12;0.85;;;;;;;-4.70;86.17;101882.96;1752633;81;21107;-48
2020/12/09 04:39:18;;;;;;;0.20;0.20;;;;;;;-4.69;86.28;101876.66;1757395;81;21584;-49
2020/12/09 04:41:46;;;;;;;0.03;0.03;;;;;;;-4.69;86.36;101883.33;1757443;81;21450;-47
2020/12/09 04:44:14;;;;;;;0.10;0.10;;;;;;;-4.67;86.42;101878.66;1736084;81;21161;-48
2020/12/09 04:46:50;;;;;;;0.10;0.10;;;;;;;-4.67;86.34;101878.20;1748672;81;21170;-48
2020/12/09 04:49:22;;;;;;;0.30;0.30;;;;;;;-4.65;86.38;101880.70;1757204;81;21123;-50
2020/12/09 04:52:32;;;;;;;0.00;0.00;;;;;;;-4.66;86.37;101880.37;1757387;81;21096;-50
2020/12/09 04:55:09;;;;;;;0.10;0.10;;;;;;;-4.65;86.46;101870.89;1754058;81;21398;-47
2020/12/09 04:57:53;;;;;;;1.10;0.75;;;;;;;-4.64;86.43;101873.06;1727016;83;21158;-48
2020/12/09 05:00:21;;;;;;;0.33;0.33;;;;;;;-4.64;86.42;101877.06;1727099;82;21160;-47
2020/12/09 05:02:53;;;;;;;0.88;0.88;;;;;;;-4.63;86.50;101870.73;1727030;81;21194;-47
2020/12/09 05:05:24;;;;;;;0.10;0.10;;;;;;;-4.64;86.62;101872.56;1727184;83;21091;-47
2020/12/09 05:07:53;;;;;;;0.10;0.10;;;;;;;-4.64;86.54;101871.23;1727185;82;21165;-49
2020/12/09 05:10:23;;;;;;;0.10;0.10;;;;;;;-4.63;86.62;101866.23;1729252;81;21130;-49
2020/12/09 05:12:52;;;;;;;0.20;0.20;;;;;;;-4.62;86.75;101867.09;1727153;83;21172;-48
2020/12/09 05:15:22;;;;;;;0.15;0.15;;;;;;;-4.61;86.74;101868.77;1726969;82;21151;-48
2020/12/09 05:18:06;;;;;;;0.13;0.13;;;;;;;-4.61;86.74;101872.27;1742939;81;21668;-48
2020/12/09 05:20:38;;;;;;;0.10;0.10;;;;;;;-4.61;86.85;101870.10;1746297;81;21270;-48
2020/12/09 05:23:08;;;;;;;0.55;0.55;;;;;;;-4.60;86.99;101877.11;1727011;82;21130;-48
2020/12/09 05:25:37;;;;;;;0.10;0.10;;;;;;;-4.60;87.04;101881.11;1727140;83;21154;-48
2020/12/09 05:28:06;;;;;;;0.10;0.10;;;;;;;-4.58;87.17;101885.81;1726937;83;21146;-49
2020/12/09 05:30:46;;;;;;;0.30;0.30;;;;;;;-4.57;87.25;101885.67;1754114;81;21209;-48
2020/12/09 05:33:17;;;;;;;0.20;0.20;;;;;;;-4.56;87.38;101880.67;1757244;81;21596;-48
2020/12/09 05:36:00;;;;;;;1.17;0.25;;;;;;;-4.54;87.44;101877.37;1729266;81;21042;-49
2020/12/09 05:38:29;;;;;;;0.10;0.10;;;;;;;-4.52;87.55;101889.25;1726980;83;21126;-48
2020/12/09 05:40:57;;;;;;;0.23;0.23;;;;;;;-4.52;87.70;101878.58;1727578;81;21130;-48
2020/12/09 05:43:25;;;;;;;0.10;0.10;;;;;;;-4.51;87.79;101878.91;1726932;81;21140;-48
2020/12/09 05:45:53;;;;;;;0.23;0.23;;;;;;;-4.49;88.02;101882.28;1726999;83;21157;-49
2020/12/09 05:48:24;;;;;;;0.80;0.80;;;;;;;-4.49;88.12;101884.95;1727578;81;21166;-48
2020/12/09 05:50:57;;;;;;;0.78;0.78;;;;;;;-4.47;88.29;101887.48;1731096;81;21150;-48
2020/12/09 05:53:32;;;;;;;2.52;1.25;;;;;;;-4.46;88.38;101894.48;1757405;81;24422;-49
2020/12/09 05:56:15;;;;;;;0.42;0.42;;;;;;;-4.45;88.46;101901.02;1726993;81;21150;-49
2020/12/09 05:58:43;;;;;;;;;;;;;;;-4.45;88.64;101901.49;1744601;81;21193;-48
2020/12/09 06:01:23;;;;;;;0.10;0.10;;;;;;;-4.44;88.76;101902.69;1757176;81;20546;-47
2020/12/09 06:03:53;;;;;;;0.40;0.40;;;;;;;-4.44;88.91;101906.70;1758851;80;21524;-47
2020/12/09 06:06:27;;;;;;;0.20;0.20;;;;;;;-4.45;89.07;101906.36;1759135;81;21113;-48
2020/12/09 06:08:57;;;;;;;0.28;0.28;;;;;;;-4.43;89.25;101907.53;1749486;81;21441;-48
2020/12/09 06:11:30;;;;;;;0.10;0.10;;;;;;;-4.44;89.39;101909.36;1762727;81;21138;-47
2020/12/09 06:13:57;;;;;;;0.00;0.00;;;;;;;-4.43;89.63;101908.36;1762509;81;21173;-47
2020/12/09 06:16:25;;;;;;;0.10;0.10;;;;;;;-4.42;89.84;101910.06;1759411;81;21462;-48
2020/12/09 06:18:55;;;;;;;0.30;0.30;;;;;;;-4.41;89.87;101906.40;1762109;81;21169;-50
2020/12/09 06:21:24;;;;;;;0.40;0.40;;;;;;;-4.40;90.03;101914.77;1762690;81;21141;-48
2020/12/09 06:23:52;;;;;;;0.30;0.30;;;;;;;-4.39;90.18;101913.77;1762868;81;21149;-48
2020/12/09 06:26:20;;;;;;;0.10;0.10;;;;;;;-4.39;90.28;101913.77;1742399;81;21118;-49
2020/12/09 06:28:49;;;;;;;0.42;0.30;;;;;;;-4.37;90.45;101913.14;1732397;82;21612;-48
2020/12/09 06:31:19;;;;;;;1.02;1.02;;;;;;;-4.34;90.52;101914.17;1732515;82;21133;-47
2020/12/09 06:33:52;;;;;;;1.80;1.65;;;;;;;-4.32;90.62;101916.70;1733055;81;21134;-49
2020/12/09 06:36:29;;;;;;;0.30;0.30;;;;;;;-4.29;90.73;101920.41;1744095;81;21128;-49
2020/12/09 06:39:15;;;;;;;0.17;0.17;;;;;;;-4.27;90.92;101920.28;1762548;81;21185;-47
2020/12/09 06:42:00;;;;;;;0.10;0.10;;;;;;;-4.25;91.12;101923.62;1758249;81;21106;-49
2020/12/09 06:44:32;;;;;;;0.10;0.10;;;;;;;-4.25;91.26;101912.94;1736512;81;21483;-48
2020/12/09 06:47:00;;;;;;;0.20;0.20;;;;;;;-4.22;91.35;101922.02;1762701;81;21114;-47
2020/12/09 06:49:35;;;;;;;0.15;0.15;;;;;;;-4.21;91.48;101920.52;1762904;81;21184;-48
2020/12/09 06:52:15;;;;;;;0.35;0.35;;;;;;;-4.19;91.54;101924.38;1762823;81;21167;-48
2020/12/09 06:54:47;;;;;;;0.50;0.33;;;;;;;-4.19;91.65;101929.22;1752087;81;21118;-49
2020/12/09 06:57:32;;;;;;;0.10;0.10;;;;;;;-4.19;91.89;101929.22;1736985;81;21454;-48
2020/12/09 07:00:20;;;;;;;0.08;0.08;;;;;;;-4.18;92.21;101932.73;1750523;81;21162;-48
2020/12/09 07:02:50;;;;;;;0.10;0.10;;;;;;;-4.17;92.50;101919.24;1760576;81;21177;-47
2020/12/09 07:05:19;;;;;;;1.45;1.00;;;;;;;-4.16;92.79;101933.42;1775523;80;21673;-48
2020/12/09 07:07:49;;;;;;;0.20;0.20;;;;;;;-4.15;93.04;101933.30;1756586;80;21119;-49
2020/12/09 07:10:23;;;;;;;0.20;0.20;;;;;;;-4.14;93.21;101936.30;1756278;81;21126;-48
2020/12/09 07:13:06;;;;;;;0.10;0.10;;;;;;;-4.13;93.42;101938.47;1774320;80;21154;-48
2020/12/09 07:15:36;;;;;;;0.45;0.45;;;;;;;-4.12;93.60;101943.67;1784785;79;21242;-49
2020/12/09 07:18:04;;;;;;;0.65;0.65;;;;;;;-4.10;93.71;101940.87;1766620;80;21179;-50
2020/12/09 07:20:32;;;;;;;0.82;0.68;;;;;;;-4.07;93.80;101943.23;1756277;81;21178;-48
2020/12/09 07:23:00;;;;;;;0.95;0.60;;;;;;;-4.04;93.88;101950.11;1756453;80;21585;-48
2020/12/09 07:25:27;;;;;;;3.33;1.87;;;;;;;-4.03;93.98;101953.11;1756512;81;21555;-47
2020/12/09 07:27:56;;;;;;;1.95;0.40;;;;;;;-4.03;94.14;101949.97;1784450;80;21291;-47
2020/12/09 07:30:25;;;;;;;0.10;0.10;;;;;;;-4.03;94.29;101955.31;1783841;80;21146;-49
2020/12/09 07:32:56;;;;;;;0.08;0.08;;;;;;;-4.02;94.45;101951.64;1777186;79;21558;-49
2020/12/09 07:35:24;;;;;;;0.55;0.40;;;;;;;-4.00;94.59;101953.68;1767064;80;21496;-48
2020/12/09 07:37:56;;;;;;;0.17;0.17;;;;;;;-3.98;94.78;101954.38;1758696;80;21112;-48
2020/12/09 07:40:29;;;;;;;0.10;0.10;;;;;;;-3.96;94.97;101956.38;1771914;80;21134;-49
2020/12/09 07:43:07;;;;;;;0.20;0.20;;;;;;;-3.95;95.13;101956.75;1776554;80;21127;-49
2020/12/09 07:45:39;;;;;;;0.05;0.05;;;;;;;-3.96;95.47;101961.72;1748506;81;21149;-49
2020/12/09 07:48:11;;;;;;;0.35;0.35;;;;;;;-3.95;95.70;101966.09;1729086;81;21126;-48
2020/12/09 07:50:40;;;;;;;1.55;1.10;;;;;;;-3.93;95.94;101960.12;1746640;79;21107;-48
2020/12/09 07:53:12;;;;;;;0.10;0.10;;;;;;;-3.94;96.54;101959.75;1770614;80;21143;-48
2020/12/09 07:55:40;;;;;;;0.27;0.27;;;;;;;-3.95;97.57;101954.08;1758814;81;21154;-48
2020/12/09 07:58:09;;;;;;;0.10;0.10;;;;;;;-3.93;98.34;101962.78;1744746;81;21173;-48
2020/12/09 08:00:40;;;;;;;3.40;1.90;;;;;;;-3.92;98.69;101961.78;1751444;81;21137;-50
2020/12/09 08:03:21;;;;;;;0.13;0.13;;;;;;;-3.90;99.19;101973.67;1742188;81;21174;-50
2020/12/09 08:05:50;;;;;;;0.37;0.37;;;;;;;-3.88;99.51;101966.36;1747114;81;22024;-49
2020/12/09 08:08:21;;;;;;;0.10;0.10;;;;;;;-3.86;99.60;101963.52;1747532;82;21148;-50
2020/12/09 08:10:51;;;;;;;0.17;0.17;;;;;;;-3.84;99.80;101964.22;1748554;81;21561;-49
2020/12/09 08:13:25;;;;;;;0.68;0.68;;;;;;;-3.84;99.86;101962.88;1787745;80;21095;-47
2020/12/09 08:18:50;;;;;;;1.70;1.10;;;;;;;-3.78;100.00;101959.13;1871488;76;27581;-49
2020/12/09 08:21:24;;;;;;;0.13;0.13;;;;;;;-3.79;100.00;101957.44;1827368;77;21186;-50
2020/12/09 08:23:53;;;;;;;0.20;0.20;;;;;;;-3.73;100.00;101948.84;1805680;78;21126;-49
2020/12/09 08:26:33;;;;;;;0.10;0.10;;;;;;;-3.71;100.00;101951.34;1799369;78;21153;-51
2020/12/09 08:29:01;;;;;;;0.10;0.10;;;;;;;-3.68;100.00;101943.05;1799895;78;21114;-49
2020/12/09 08:31:29;;;;;;;0.15;0.15;;;;;;;-3.65;100.00;101946.76;1816631;78;21091;-49
2020/12/09 08:33:57;;;;;;;0.50;0.50;;;;;;;-3.60;100.00;101945.81;1802324;78;21098;-48
2020/12/09 08:36:26;;;;;;;0.00;0.00;;;;;;;-3.58;100.00;101947.84;1820438;78;21120;-50
2020/12/09 08:39:00;;;;;;;1.17;0.55;;;;;;;-3.56;100.00;101944.53;1820791;78;21150;-49
2020/12/09 08:41:35;;;;;;;0.10;0.10;;;;;;;-3.53;100.00;101948.73;1809691;78;21122;-49
2020/12/09 08:44:07;;;;;;;0.10;0.10;;;;;;;-3.51;100.00;101948.93;1822176;78;21407;-50
2020/12/09 08:46:35;;;;;;;0.28;0.28;;;;;;;-3.52;100.00;101943.22;1816112;77;21133;-50
2020/12/09 08:49:03;;;;;;;0.10;0.10;;;;;;;-3.53;100.00;101949.57;1778039;80;21172;-49
2020/12/09 08:51:34;;;;;;;0.75;0.75;;;;;;;-3.53;100.00;101946.06;1775030;80;21130;-50
2020/12/09 08:54:05;;;;;;;0.10;0.10;;;;;;;-3.53;100.00;101944.23;1756346;81;21130;-49
2020/12/09 08:56:35;;;;;;;0.13;0.13;;;;;;;-3.56;100.00;101936.52;1754108;81;21618;-51
2020/12/09 08:59:03;;;;;;;0.33;0.33;;;;;;;-3.54;100.00;101934.51;1745271;81;21143;-50
2020/12/09 09:01:38;;;;;;;0.30;0.30;;;;;;;-3.52;100.00;101929.86;1780044;80;21597;-49
2020/12/09 09:04:09;;;;;;;0.10;0.10;;;;;;;-3.49;100.00;101929.58;1779301;80;21142;-49
2020/12/09 09:06:37;;;;;;;0.20;0.20;;;;;;;-3.46;100.00;101926.59;1769932;80;21133;-49
2020/12/09 09:09:06;;;;;;;0.75;0.75;;;;;;;-3.43;100.00;101924.13;1765792;80;21544;-49
2020/12/09 09:11:34;;;;;;;0.10;0.10;;;;;;;-3.42;100.00;101913.76;1783274;80;21562;-49
2020/12/09 09:14:02;;;;;;;0.15;0.15;;;;;;;-3.42;100.00;101919.61;1746004;81;21131;-50
2020/12/09 09:16:30;;;;;;;0.45;0.45;;;;;;;-3.40;100.00;101916.29;1779986;80;21103;-49
2020/12/09 09:18:58;;;;;;;0.95;0.95;;;;;;;-3.40;99.97;101909.11;1750090;81;21560;-49
2020/12/09 09:21:26;;;;;;;0.60;0.60;;;;;;;-3.36;99.90;101923.00;1764983;80;21144;-49
2020/12/09 09:23:53;;;;;;;0.10;0.10;;;;;;;-3.35;99.69;101918.84;1727542;81;21133;-48
2020/12/09 09:26:21;;;;;;;0.68;0.68;;;;;;;-3.33;99.56;101917.37;1765110;81;21173;-49
2020/12/09 09:28:49;;;;;;;0.25;0.25;;;;;;;-3.33;99.41;101922.72;1758568;81;21141;-49
2020/12/09 09:31:17;;;;;;;0.45;0.45;;;;;;;-3.30;99.24;101926.41;1756866;81;21119;-49
2020/12/09 09:33:45;;;;;;;0.72;0.72;;;;;;;-3.32;98.91;101924.38;1762418;81;21094;-48
2020/12/09 09:36:13;;;;;;;0.10;0.10;;;;;;;-3.30;98.89;101921.06;1758791;81;21138;-48
2020/12/09 09:38:41;;;;;;;1.05;0.40;;;;;;;-3.26;98.73;101923.79;1755627;81;21157;-50
2020/12/09 09:41:09;;;;;;;0.57;0.57;;;;;;;-3.27;98.26;101924.27;1757286;81;21498;-49
2020/12/09 09:43:37;;;;;;;0.10;0.10;;;;;;;-3.25;98.06;101920.94;1758271;81;21117;-49
2020/12/09 09:46:04;;;;;;;0.10;0.10;;;;;;;-3.23;97.83;101921.30;1748586;80;21572;-49
2020/12/09 09:48:32;;;;;;;1.55;0.53;;;;;;;-3.19;97.80;101929.34;1762457;81;21389;-49
2020/12/09 09:51:01;;;;;;;0.33;0.33;;;;;;;-3.17;97.33;101922.85;1754660;81;21600;-49
2020/12/09 09:53:28;;;;;;;0.37;0.37;;;;;;;-3.18;96.88;101915.00;1774424;80;21186;-50
2020/12/09 09:55:56;;;;;;;0.65;0.65;;;;;;;-3.20;96.50;101909.80;1776243;80;21191;-49
2020/12/09 09:58:24;;;;;;;0.45;0.45;;;;;;;-3.22;96.06;101909.10;1779115;80;21126;-48
2020/12/09 10:00:51;;;;;;;6.50;0.60;;;;;;;-3.25;95.56;101908.91;1744905;81;21149;-49
2020/12/09 10:03:19;;;;;;;0.28;0.28;;;;;;;-3.29;94.94;101902.69;1781102;80;21154;-50
2020/12/09 10:05:47;;;;;;;0.10;0.10;;;;;;;-3.33;94.99;101906.17;1772610;80;21119;-49
2020/12/09 10:08:14;;;;;;;0.40;0.40;;;;;;;-3.32;95.33;101900.32;1728908;81;21142;-49
2020/12/09 10:10:42;;;;;;;0.80;0.55;;;;;;;-3.30;95.18;101899.17;1751986;80;20985;-50
2020/12/09 10:13:11;;;;;;;0.20;0.20;;;;;;;-3.26;95.20;101894.37;1753894;80;21156;-49
2020/12/09 10:15:39;;;;;;;0.00;0.00;;;;;;;-3.21;95.28;101898.77;1763078;80;21119;-50
2020/12/09 10:18:12;;;;;;;0.10;0.10;;;;;;;-3.19;94.63;101899.47;1785478;79;21441;-48
2020/12/09 10:20:39;;;;;;;0.10;0.10;;;;;;;-3.18;94.47;101905.64;1781787;79;21126;-49
2020/12/09 10:23:08;;;;;;;1.12;1.05;;;;;;;-3.22;93.85;101909.10;1732163;79;21117;-48
2020/12/09 10:25:35;;;;;;;0.23;0.23;;;;;;;-3.30;93.33;101907.20;1794076;78;21517;-48
2020/12/09 10:28:03;;;;;;;0.10;0.10;;;;;;;-3.31;93.56;101906.86;1747123;81;21170;-49
2020/12/09 10:30:31;;;;;;;0.08;0.08;;;;;;;-3.30;93.49;101911.20;1763924;81;21525;-49
2020/12/09 10:32:59;;;;;;;5.03;0.55;;;;;;;-3.29;93.25;101908.03;1787662;79;21132;-49
2020/12/09 10:35:28;;;;;;;0.10;0.10;;;;;;;-3.29;92.98;101900.87;1777023;79;21110;-49
2020/12/09 10:37:56;;;;;;;0.10;0.10;;;;;;;-3.32;92.97;101896.31;1775178;78;21498;-49
2020/12/09 10:40:25;;;;;;;0.68;0.68;;;;;;;-3.31;93.00;101899.35;1781374;78;21118;-48
2020/12/09 10:42:53;;;;;;;2.25;1.55;;;;;;;-3.30;92.50;101903.69;1770629;79;21189;-49
2020/12/09 10:53:24;;;;;;;0.27;0.27;;;;;;;-3.38;93.93;101895.60;1830408;77;28220;-47
2020/12/09 10:55:59;;;;;;;0.55;0.55;;;;;;;-3.42;94.23;101896.89;1794056;78;21693;-48
2020/12/09 10:58:21;;;;;;;2.20;0.57;;;;;;;-3.46;93.69;101891.86;1797515;78;21181;-47
2020/12/09 11:00:49;;;;;;;0.20;0.20;;;;;;;-3.52;94.06;101895.12;1807477;78;21131;-48
2020/12/09 11:03:16;;;;;;;0.40;0.40;;;;;;;-3.55;94.08;101892.75;1802130;78;21118;-48
2020/12/09 11:05:45;;;;;;;0.10;0.10;;;;;;;-3.56;94.66;101889.75;1795118;78;21551;-48
2020/12/09 11:08:14;;;;;;;0.93;0.90;;;;;;;-3.52;94.82;101896.45;1794900;78;21130;-47
2020/12/09 11:10:43;;;;;;;0.35;0.35;;;;;;;-3.51;94.74;101890.13;1798914;78;21190;-47
2020/12/09 11:13:11;;;;;;;0.10;0.10;;;;;;;-3.52;94.73;101889.77;1794449;78;21534;-46
2020/12/09 11:15:39;;;;;;;0.10;0.10;;;;;;;-3.52;94.73;101895.12;1788527;80;21490;-48
2020/12/09 11:18:07;;;;;;;0.78;0.78;;;;;;;-3.52;94.39;101889.77;1788566;80;21131;-47
2020/12/09 11:20:37;;;;;;;0.10;0.10;;;;;;;-3.55;93.86;101893.26;1788625;80;21092;-49
2020/12/09 11:23:10;;;;;;;0.23;0.23;;;;;;;-3.57;94.35;101892.56;1788715;78;21163;-48
2020/12/09 11:25:34;;;;;;;0.05;0.05;;;;;;;-3.56;94.31;101884.41;1824027;78;21162;-49
2020/12/09 11:28:03;;;;;;;0.20;0.20;;;;;;;-3.54;94.17;101892.25;1801674;78;21437;-48
2020/12/09 11:30:31;;;;;;;0.03;0.03;;;;;;;-3.52;94.38;101895.62;1788577;80;21079;-48
2020/12/09 11:32:59;;;;;;;1.55;0.75;;;;;;;-3.50;94.24;101887.80;1788474;80;21131;-48
2020/12/09 11:35:27;;;;;;;3.22;0.55;;;;;;;-3.48;94.04;101883.14;1788553;80;21900;-49
2020/12/09 11:37:56;;;;;;;0.15;0.15;;;;;;;-3.48;93.69;101885.81;1788105;80;21151;-50
2020/12/09 11:40:25;;;;;;;0.20;0.20;;;;;;;-3.49;93.36;101884.63;1788187;80;21127;-48
2020/12/09 11:42:54;;;;;;;0.10;0.10;;;;;;;-3.54;93.44;101878.39;1788269;80;21131;-49
2020/12/09 11:45:22;;;;;;;0.00;0.00;;;;;;;-3.54;93.75;101870.37;1753440;81;21517;-49